sensor_id;sensor_type;location;lat;lon;timestamp;temperature;humidity
17948;DHT22;9099;47.958;11.366;2024-03-17T00:00:48;9.90;99.90
17948;DHT22;9099;47.958;11.366;2024-03-17T00:03:16;9.90;99.90
17948;DHT22;9099;47.958;11.366;2024-03-17T00:05:43;9.90;99.90
17948;DHT22;9099;47.958;11.366;2024-03-17T00:08:10;9.80;99.90
17948;DHT22;9099;47.958;11.366;2024-03-17T00:10:35;9.80;99.90
17948;DHT22;9099;47.958;11.366;2024-03-17T00:13:03;9.80;99.90
17948;DHT22;9099;47.958;11.366;2024-03-17T00:15:29;9.80;99.90
17948;DHT22;9099;47.958;11.366;2024-03-17T00:17:56;9.90;99.90
17948;DHT22;9099;47.958;11.366;2024-03-17T00:20:21;9.90;99.90
17948;DHT22;9099;47.958;11.366;2024-03-17T00:22:51;9.90;99.90
17948;DHT22;9099;47.958;11.366;2024-03-17T00:25:17;9.90;99.90
17948;DHT22;9099;47.958;11.366;2024-03-17T00:27:44;9.90;99.90
17948;DHT22;9099;47.958;11.366;2024-03-17T00:30:11;9.90;99.90
17948;DHT22;9099;47.958;11.366;2024-03-17T00:32:39;9.90;99.90
17948;DHT22;9099;47.958;11.366;2024-03-17T00:35:06;9.90;99.90
17948;DHT22;9099;47.958;11.366;2024-03-17T00:37:33;10.00;99.90
17948;DHT22;9099;47.958;11.366;2024-03-17T00:40:01;10.00;99.90
17948;DHT22;9099;47.958;11.366;2024-03-17T00:42:29;10.00;99.90
17948;DHT22;9099;47.958;11.366;2024-03-17T00:44:55;10.00;99.90
17948;DHT22;9099;47.958;11.366;2024-03-17T00:47:22;10.00;99.90
17948;DHT22;9099;47.958;11.366;2024-03-17T00:49:48;9.90;99.90
17948;DHT22;9099;47.958;11.366;2024-03-17T00:52:15;9.90;99.90
17948;DHT22;9099;47.958;11.366;2024-03-17T00:54:41;9.90;99.90
17948;DHT22;9099;47.958;11.366;2024-03-17T00:57:10;10.00;99.90
17948;DHT22;9099;47.958;11.366;2024-03-17T00:59:35;10.00;99.90
17948;DHT22;9099;47.958;11.366;2024-03-17T01:02:02;10.00;99.90
17948;DHT22;9099;47.958;11.366;2024-03-17T01:04:28;10.00;99.90
17948;DHT22;9099;47.958;11.366;2024-03-17T01:06:56;9.90;99.90
17948;DHT22;9099;47.958;11.366;2024-03-17T01:09:21;9.90;99.90
17948;DHT22;9099;47.958;11.366;2024-03-17T01:11:48;9.80;99.90
17948;DHT22;9099;47.958;11.366;2024-03-17T01:14:15;9.80;99.90
17948;DHT22;9099;47.958;11.366;2024-03-17T01:16:42;9.70;99.90
17948;DHT22;9099;47.958;11.366;2024-03-17T01:19:08;9.60;99.90
17948;DHT22;9099;47.958;11.366;2024-03-17T01:21:35;9.40;99.90
17948;DHT22;9099;47.958;11.366;2024-03-17T01:24:01;9.30;99.90
17948;DHT22;9099;47.958;11.366;2024-03-17T01:26:28;9.20;99.90
17948;DHT22;9099;47.958;11.366;2024-03-17T01:28:55;9.20;99.90
17948;DHT22;9099;47.958;11.366;2024-03-17T01:31:22;9.20;99.90
17948;DHT22;9099;47.958;11.366;2024-03-17T01:33:50;9.30;99.90
17948;DHT22;9099;47.958;11.366;2024-03-17T01:36:16;9.40;99.90
17948;DHT22;9099;47.958;11.366;2024-03-17T01:38:43;9.40;99.90
17948;DHT22;9099;47.958;11.366;2024-03-17T01:41:09;9.50;99.90
17948;DHT22;9099;47.958;11.366;2024-03-17T01:43:35;9.40;99.90
17948;DHT22;9099;47.958;11.366;2024-03-17T01:46:02;9.50;99.90
17948;DHT22;9099;47.958;11.366;2024-03-17T01:48:30;9.50;99.90
17948;DHT22;9099;47.958;11.366;2024-03-17T01:50:57;9.40;99.90
17948;DHT22;9099;47.958;11.366;2024-03-17T01:53:25;9.40;99.90
17948;DHT22;9099;47.958;11.366;2024-03-17T01:55:54;9.40;99.90
17948;DHT22;9099;47.958;11.366;2024-03-17T01:58:25;9.40;99.90
17948;DHT22;9099;47.958;11.366;2024-03-17T02:00:51;9.50;99.90
17948;DHT22;9099;47.958;11.366;2024-03-17T02:03:18;9.50;99.90
17948;DHT22;9099;47.958;11.366;2024-03-17T02:05:46;9.50;99.90
17948;DHT22;9099;47.958;11.366;2024-03-17T02:08:13;9.40;99.90
17948;DHT22;9099;47.958;11.366;2024-03-17T02:10:40;9.40;99.90
17948;DHT22;9099;47.958;11.366;2024-03-17T02:13:06;9.40;99.90
17948;DHT22;9099;47.958;11.366;2024-03-17T02:15:33;9.40;99.90
17948;DHT22;9099;47.958;11.366;2024-03-17T02:17:59;9.50;99.90
17948;DHT22;9099;47.958;11.366;2024-03-17T02:20:26;9.50;99.90
17948;DHT22;9099;47.958;11.366;2024-03-17T02:23:08;9.30;99.90
17948;DHT22;9099;47.958;11.366;2024-03-17T02:25:35;9.30;99.90
17948;DHT22;9099;47.958;11.366;2024-03-17T02:28:01;9.20;99.90
17948;DHT22;9099;47.958;11.366;2024-03-17T02:30:28;9.20;99.90
17948;DHT22;9099;47.958;11.366;2024-03-17T02:32:55;9.10;99.90
17948;DHT22;9099;47.958;11.366;2024-03-17T02:35:21;9.00;99.90
17948;DHT22;9099;47.958;11.366;2024-03-17T02:37:48;8.90;99.90
17948;DHT22;9099;47.958;11.366;2024-03-17T02:40:16;8.80;99.90
17948;DHT22;9099;47.958;11.366;2024-03-17T02:42:43;8.80;99.90
17948;DHT22;9099;47.958;11.366;2024-03-17T02:45:10;8.80;99.90
17948;DHT22;9099;47.958;11.366;2024-03-17T02:47:38;8.80;99.90
17948;DHT22;9099;47.958;11.366;2024-03-17T02:50:06;8.80;99.90
17948;DHT22;9099;47.958;11.366;2024-03-17T02:52:34;8.80;99.90
17948;DHT22;9099;47.958;11.366;2024-03-17T02:55:01;8.80;99.90
17948;DHT22;9099;47.958;11.366;2024-03-17T02:57:29;8.70;99.90
17948;DHT22;9099;47.958;11.366;2024-03-17T02:59:57;8.70;99.90
17948;DHT22;9099;47.958;11.366;2024-03-17T03:02:24;8.70;99.90
17948;DHT22;9099;47.958;11.366;2024-03-17T03:04:51;8.80;99.90
17948;DHT22;9099;47.958;11.366;2024-03-17T03:07:18;8.80;99.90
17948;DHT22;9099;47.958;11.366;2024-03-17T03:09:45;8.80;99.90
17948;DHT22;9099;47.958;11.366;2024-03-17T03:12:12;8.80;99.90
17948;DHT22;9099;47.958;11.366;2024-03-17T03:14:41;8.70;99.90
17948;DHT22;9099;47.958;11.366;2024-03-17T03:17:07;8.70;99.90
17948;DHT22;9099;47.958;11.366;2024-03-17T03:19:35;8.70;99.90
17948;DHT22;9099;47.958;11.366;2024-03-17T03:22:02;8.60;99.90
17948;DHT22;9099;47.958;11.366;2024-03-17T03:24:29;8.60;99.90
17948;DHT22;9099;47.958;11.366;2024-03-17T03:26:55;8.60;99.90
17948;DHT22;9099;47.958;11.366;2024-03-17T03:29:23;8.60;99.90
17948;DHT22;9099;47.958;11.366;2024-03-17T03:31:51;8.50;99.90
17948;DHT22;9099;47.958;11.366;2024-03-17T03:34:18;8.50;99.90
17948;DHT22;9099;47.958;11.366;2024-03-17T03:36:44;8.50;99.90
17948;DHT22;9099;47.958;11.366;2024-03-17T03:39:11;8.40;99.90
17948;DHT22;9099;47.958;11.366;2024-03-17T03:41:39;8.30;99.90
17948;DHT22;9099;47.958;11.366;2024-03-17T03:44:06;8.20;99.90
17948;DHT22;9099;47.958;11.366;2024-03-17T03:46:36;8.20;99.90
17948;DHT22;9099;47.958;11.366;2024-03-17T03:49:04;8.20;99.90
17948;DHT22;9099;47.958;11.366;2024-03-17T03:51:31;8.20;99.90
17948;DHT22;9099;47.958;11.366;2024-03-17T03:53:58;8.30;99.90
17948;DHT22;9099;47.958;11.366;2024-03-17T03:56:24;8.20;99.90
17948;DHT22;9099;47.958;11.366;2024-03-17T03:58:51;8.20;99.90
17948;DHT22;9099;47.958;11.366;2024-03-17T04:01:18;8.20;99.90
17948;DHT22;9099;47.958;11.366;2024-03-17T04:03:47;8.20;99.90
17948;DHT22;9099;47.958;11.366;2024-03-17T04:06:16;8.20;99.90
17948;DHT22;9099;47.958;11.366;2024-03-17T04:08:43;8.10;99.90
17948;DHT22;9099;47.958;11.366;2024-03-17T04:11:10;8.20;99.90
17948;DHT22;9099;47.958;11.366;2024-03-17T04:13:37;8.30;99.90
17948;DHT22;9099;47.958;11.366;2024-03-17T04:16:07;8.30;99.90
17948;DHT22;9099;47.958;11.366;2024-03-17T04:18:34;8.40;99.90
17948;DHT22;9099;47.958;11.366;2024-03-17T04:21:02;8.50;99.90
17948;DHT22;9099;47.958;11.366;2024-03-17T04:23:31;8.50;99.90
17948;DHT22;9099;47.958;11.366;2024-03-17T04:25:59;8.40;99.90
17948;DHT22;9099;47.958;11.366;2024-03-17T04:28:26;8.30;99.90
17948;DHT22;9099;47.958;11.366;2024-03-17T04:30:53;8.20;99.90
17948;DHT22;9099;47.958;11.366;2024-03-17T04:33:27;8.10;99.90
17948;DHT22;9099;47.958;11.366;2024-03-17T04:35:54;8.10;99.90
17948;DHT22;9099;47.958;11.366;2024-03-17T04:38:21;8.00;99.90
17948;DHT22;9099;47.958;11.366;2024-03-17T04:40:49;8.00;99.90
17948;DHT22;9099;47.958;11.366;2024-03-17T04:43:17;7.90;99.90
17948;DHT22;9099;47.958;11.366;2024-03-17T04:45:46;8.00;99.90
17948;DHT22;9099;47.958;11.366;2024-03-17T04:48:15;8.00;99.90
17948;DHT22;9099;47.958;11.366;2024-03-17T04:50:41;8.10;99.90
17948;DHT22;9099;47.958;11.366;2024-03-17T04:53:08;8.10;99.90
17948;DHT22;9099;47.958;11.366;2024-03-17T04:55:35;8.10;99.90
17948;DHT22;9099;47.958;11.366;2024-03-17T04:58:03;8.10;99.90
17948;DHT22;9099;47.958;11.366;2024-03-17T05:00:30;8.10;99.90
17948;DHT22;9099;47.958;11.366;2024-03-17T05:02:57;8.20;99.90
17948;DHT22;9099;47.958;11.366;2024-03-17T05:05:24;8.20;99.90
17948;DHT22;9099;47.958;11.366;2024-03-17T05:07:51;8.20;99.90
17948;DHT22;9099;47.958;11.366;2024-03-17T05:10:17;8.30;99.90
17948;DHT22;9099;47.958;11.366;2024-03-17T05:12:45;8.30;99.90
17948;DHT22;9099;47.958;11.366;2024-03-17T05:15:15;8.30;99.90
17948;DHT22;9099;47.958;11.366;2024-03-17T05:17:41;8.30;99.90
17948;DHT22;9099;47.958;11.366;2024-03-17T05:20:09;8.40;99.90
17948;DHT22;9099;47.958;11.366;2024-03-17T05:22:36;8.30;99.90
17948;DHT22;9099;47.958;11.366;2024-03-17T05:25:04;8.20;99.90
17948;DHT22;9099;47.958;11.366;2024-03-17T05:27:31;8.20;99.90
17948;DHT22;9099;47.958;11.366;2024-03-17T05:29:59;8.20;99.90
17948;DHT22;9099;47.958;11.366;2024-03-17T05:32:28;8.30;99.90
17948;DHT22;9099;47.958;11.366;2024-03-17T05:34:55;8.30;99.90
17948;DHT22;9099;47.958;11.366;2024-03-17T05:37:22;8.30;99.90
17948;DHT22;9099;47.958;11.366;2024-03-17T05:39:48;8.40;99.90
17948;DHT22;9099;47.958;11.366;2024-03-17T05:42:15;8.40;99.90
17948;DHT22;9099;47.958;11.366;2024-03-17T05:44:42;8.40;99.90
17948;DHT22;9099;47.958;11.366;2024-03-17T05:47:17;8.40;99.90
17948;DHT22;9099;47.958;11.366;2024-03-17T05:49:45;8.30;99.90
17948;DHT22;9099;47.958;11.366;2024-03-17T05:52:12;8.20;99.90
17948;DHT22;9099;47.958;11.366;2024-03-17T05:54:39;8.10;99.90
17948;DHT22;9099;47.958;11.366;2024-03-17T05:57:06;8.10;99.90
17948;DHT22;9099;47.958;11.366;2024-03-17T05:59:34;8.10;99.90
17948;DHT22;9099;47.958;11.366;2024-03-17T06:02:01;8.10;99.90
17948;DHT22;9099;47.958;11.366;2024-03-17T06:04:28;8.10;99.90
17948;DHT22;9099;47.958;11.366;2024-03-17T06:06:56;8.10;99.90
17948;DHT22;9099;47.958;11.366;2024-03-17T06:09:23;8.20;99.90
17948;DHT22;9099;47.958;11.366;2024-03-17T06:11:50;8.30;99.90
17948;DHT22;9099;47.958;11.366;2024-03-17T06:14:17;8.50;99.90
17948;DHT22;9099;47.958;11.366;2024-03-17T06:16:45;8.60;99.90
17948;DHT22;9099;47.958;11.366;2024-03-17T06:19:12;8.70;99.90
17948;DHT22;9099;47.958;11.366;2024-03-17T06:21:40;8.70;99.90
17948;DHT22;9099;47.958;11.366;2024-03-17T06:24:08;8.60;99.90
17948;DHT22;9099;47.958;11.366;2024-03-17T06:26:35;8.80;99.90
17948;DHT22;9099;47.958;11.366;2024-03-17T06:29:02;9.00;99.90
17948;DHT22;9099;47.958;11.366;2024-03-17T06:31:28;9.40;99.90
17948;DHT22;9099;47.958;11.366;2024-03-17T06:33:56;9.90;99.90
17948;DHT22;9099;47.958;11.366;2024-03-17T06:36:23;10.20;99.90
17948;DHT22;9099;47.958;11.366;2024-03-17T06:38:49;10.90;99.90
17948;DHT22;9099;47.958;11.366;2024-03-17T06:41:18;12.00;99.90
17948;DHT22;9099;47.958;11.366;2024-03-17T06:43:45;13.20;99.90
17948;DHT22;9099;47.958;11.366;2024-03-17T06:46:11;14.10;99.90
17948;DHT22;9099;47.958;11.366;2024-03-17T06:48:38;14.70;99.90
17948;DHT22;9099;47.958;11.366;2024-03-17T06:51:05;15.30;99.90
17948;DHT22;9099;47.958;11.366;2024-03-17T06:53:32;16.00;99.90
17948;DHT22;9099;47.958;11.366;2024-03-17T06:56:00;16.70;99.90
17948;DHT22;9099;47.958;11.366;2024-03-17T06:58:28;17.30;99.90
17948;DHT22;9099;47.958;11.366;2024-03-17T07:00:56;18.00;99.90
17948;DHT22;9099;47.958;11.366;2024-03-17T07:03:24;18.10;99.90
17948;DHT22;9099;47.958;11.366;2024-03-17T07:05:53;18.50;99.90
17948;DHT22;9099;47.958;11.366;2024-03-17T07:08:20;18.00;99.90
17948;DHT22;9099;47.958;11.366;2024-03-17T07:10:58;17.10;99.90
17948;DHT22;9099;47.958;11.366;2024-03-17T07:13:25;17.60;99.90
17948;DHT22;9099;47.958;11.366;2024-03-17T07:15:53;17.30;99.90
17948;DHT22;9099;47.958;11.366;2024-03-17T07:18:20;17.40;99.90
17948;DHT22;9099;47.958;11.366;2024-03-17T07:20:47;17.20;99.90
17948;DHT22;9099;47.958;11.366;2024-03-17T07:23:14;16.50;99.90
17948;DHT22;9099;47.958;11.366;2024-03-17T07:25:42;16.20;99.90
17948;DHT22;9099;47.958;11.366;2024-03-17T07:28:09;16.70;99.90
17948;DHT22;9099;47.958;11.366;2024-03-17T07:30:36;17.00;99.90
17948;DHT22;9099;47.958;11.366;2024-03-17T07:33:04;16.70;99.90
17948;DHT22;9099;47.958;11.366;2024-03-17T07:35:31;17.00;99.90
17948;DHT22;9099;47.958;11.366;2024-03-17T07:37:58;17.00;99.90
17948;DHT22;9099;47.958;11.366;2024-03-17T07:40:25;16.60;99.90
17948;DHT22;9099;47.958;11.366;2024-03-17T07:42:52;16.50;99.90
17948;DHT22;9099;47.958;11.366;2024-03-17T07:45:19;16.60;99.90
17948;DHT22;9099;47.958;11.366;2024-03-17T07:47:45;17.10;99.90
17948;DHT22;9099;47.958;11.366;2024-03-17T07:50:14;18.00;99.90
17948;DHT22;9099;47.958;11.366;2024-03-17T07:52:41;18.70;99.90
17948;DHT22;9099;47.958;11.366;2024-03-17T07:55:08;18.00;99.90
17948;DHT22;9099;47.958;11.366;2024-03-17T07:57:35;18.50;99.90
17948;DHT22;9099;47.958;11.366;2024-03-17T08:00:02;18.90;99.90
17948;DHT22;9099;47.958;11.366;2024-03-17T08:02:29;18.90;99.90
17948;DHT22;9099;47.958;11.366;2024-03-17T08:04:56;18.80;99.90
17948;DHT22;9099;47.958;11.366;2024-03-17T08:07:24;18.70;99.90
17948;DHT22;9099;47.958;11.366;2024-03-17T08:09:51;19.30;99.90
17948;DHT22;9099;47.958;11.366;2024-03-17T08:12:18;20.50;99.90
17948;DHT22;9099;47.958;11.366;2024-03-17T08:14:45;20.60;99.90
17948;DHT22;9099;47.958;11.366;2024-03-17T08:17:12;20.40;99.90
17948;DHT22;9099;47.958;11.366;2024-03-17T08:19:39;20.60;99.90
17948;DHT22;9099;47.958;11.366;2024-03-17T08:22:07;20.60;99.90
17948;DHT22;9099;47.958;11.366;2024-03-17T08:24:35;21.20;99.90
17948;DHT22;9099;47.958;11.366;2024-03-17T08:27:02;20.90;99.90
17948;DHT22;9099;47.958;11.366;2024-03-17T08:29:29;21.20;99.90
17948;DHT22;9099;47.958;11.366;2024-03-17T08:31:55;21.40;99.90
17948;DHT22;9099;47.958;11.366;2024-03-17T08:34:22;21.30;99.90
17948;DHT22;9099;47.958;11.366;2024-03-17T08:36:49;21.50;99.90
17948;DHT22;9099;47.958;11.366;2024-03-17T08:39:16;21.50;99.90
17948;DHT22;9099;47.958;11.366;2024-03-17T08:41:44;21.40;99.90
17948;DHT22;9099;47.958;11.366;2024-03-17T08:44:11;20.80;99.90
17948;DHT22;9099;47.958;11.366;2024-03-17T08:46:38;19.70;99.90
17948;DHT22;9099;47.958;11.366;2024-03-17T08:49:05;19.00;99.90
17948;DHT22;9099;47.958;11.366;2024-03-17T08:51:32;18.30;99.90
17948;DHT22;9099;47.958;11.366;2024-03-17T08:53:58;18.10;99.90
17948;DHT22;9099;47.958;11.366;2024-03-17T08:56:25;18.00;99.90
17948;DHT22;9099;47.958;11.366;2024-03-17T08:58:53;17.80;99.90
17948;DHT22;9099;47.958;11.366;2024-03-17T09:01:20;18.20;99.90
17948;DHT22;9099;47.958;11.366;2024-03-17T09:03:47;18.00;99.90
17948;DHT22;9099;47.958;11.366;2024-03-17T09:06:17;17.80;99.90
17948;DHT22;9099;47.958;11.366;2024-03-17T09:08:46;18.80;99.90
17948;DHT22;9099;47.958;11.366;2024-03-17T09:11:14;19.80;99.90
17948;DHT22;9099;47.958;11.366;2024-03-17T09:13:40;19.80;99.90
17948;DHT22;9099;47.958;11.366;2024-03-17T09:16:10;20.70;99.90
17948;DHT22;9099;47.958;11.366;2024-03-17T09:18:39;22.20;99.90
17948;DHT22;9099;47.958;11.366;2024-03-17T09:21:07;23.50;99.90
17948;DHT22;9099;47.958;11.366;2024-03-17T09:23:36;23.90;99.90
17948;DHT22;9099;47.958;11.366;2024-03-17T09:26:04;24.10;99.90
17948;DHT22;9099;47.958;11.366;2024-03-17T09:28:34;25.00;99.90
17948;DHT22;9099;47.958;11.366;2024-03-17T09:31:01;25.90;99.90
17948;DHT22;9099;47.958;11.366;2024-03-17T09:33:30;25.30;99.90
17948;DHT22;9099;47.958;11.366;2024-03-17T09:35:58;24.50;99.90
17948;DHT22;9099;47.958;11.366;2024-03-17T09:38:26;24.00;99.90
17948;DHT22;9099;47.958;11.366;2024-03-17T09:40:53;25.00;99.90
17948;DHT22;9099;47.958;11.366;2024-03-17T09:43:24;25.70;99.90
17948;DHT22;9099;47.958;11.366;2024-03-17T09:45:51;25.40;99.90
17948;DHT22;9099;47.958;11.366;2024-03-17T09:48:21;24.70;99.90
17948;DHT22;9099;47.958;11.366;2024-03-17T09:50:52;24.00;99.90
17948;DHT22;9099;47.958;11.366;2024-03-17T09:53:23;23.70;99.90
17948;DHT22;9099;47.958;11.366;2024-03-17T09:55:50;23.20;99.90
17948;DHT22;9099;47.958;11.366;2024-03-17T09:58:17;22.70;99.90
17948;DHT22;9099;47.958;11.366;2024-03-17T10:00:45;22.60;99.90
17948;DHT22;9099;47.958;11.366;2024-03-17T10:03:12;22.70;99.90
17948;DHT22;9099;47.958;11.366;2024-03-17T10:05:39;22.50;99.90
17948;DHT22;9099;47.958;11.366;2024-03-17T10:08:20;22.70;99.90
17948;DHT22;9099;47.958;11.366;2024-03-17T10:10:52;22.80;99.90
17948;DHT22;9099;47.958;11.366;2024-03-17T10:13:20;22.80;99.90
17948;DHT22;9099;47.958;11.366;2024-03-17T10:15:48;23.00;99.90
17948;DHT22;9099;47.958;11.366;2024-03-17T10:18:20;23.10;99.90
17948;DHT22;9099;47.958;11.366;2024-03-17T10:20:49;23.40;99.90
17948;DHT22;9099;47.958;11.366;2024-03-17T10:23:22;23.20;99.90
17948;DHT22;9099;47.958;11.366;2024-03-17T10:25:49;23.20;99.90
17948;DHT22;9099;47.958;11.366;2024-03-17T10:28:17;23.20;99.90
17948;DHT22;9099;47.958;11.366;2024-03-17T10:30:57;23.30;99.90
17948;DHT22;9099;47.958;11.366;2024-03-17T10:33:24;23.70;99.90
17948;DHT22;9099;47.958;11.366;2024-03-17T10:35:58;23.90;99.90
17948;DHT22;9099;47.958;11.366;2024-03-17T10:38:27;23.60;99.90
17948;DHT22;9099;47.958;11.366;2024-03-17T10:40:54;23.20;99.90
17948;DHT22;9099;47.958;11.366;2024-03-17T10:43:21;22.90;99.90
17948;DHT22;9099;47.958;11.366;2024-03-17T10:45:52;22.80;99.90
17948;DHT22;9099;47.958;11.366;2024-03-17T10:48:20;22.80;99.90
17948;DHT22;9099;47.958;11.366;2024-03-17T10:50:48;22.90;99.90
17948;DHT22;9099;47.958;11.366;2024-03-17T10:53:20;22.60;99.90
17948;DHT22;9099;47.958;11.366;2024-03-17T10:56:03;22.40;99.90
17948;DHT22;9099;47.958;11.366;2024-03-17T10:58:34;22.90;99.90
17948;DHT22;9099;47.958;11.366;2024-03-17T11:01:02;23.40;99.90
17948;DHT22;9099;47.958;11.366;2024-03-17T11:03:31;23.50;99.90
17948;DHT22;9099;47.958;11.366;2024-03-17T11:05:59;22.70;99.90
17948;DHT22;9099;47.958;11.366;2024-03-17T11:08:30;23.00;99.90
17948;DHT22;9099;47.958;11.366;2024-03-17T11:10:59;22.80;99.90
17948;DHT22;9099;47.958;11.366;2024-03-17T11:13:27;22.40;99.90
17948;DHT22;9099;47.958;11.366;2024-03-17T11:15:55;22.50;99.90
17948;DHT22;9099;47.958;11.366;2024-03-17T11:18:33;22.50;99.90
17948;DHT22;9099;47.958;11.366;2024-03-17T11:21:00;22.20;99.90
17948;DHT22;9099;47.958;11.366;2024-03-17T11:23:34;21.80;99.90
17948;DHT22;9099;47.958;11.366;2024-03-17T11:26:05;21.50;99.90
17948;DHT22;9099;47.958;11.366;2024-03-17T11:28:48;21.70;99.90
17948;DHT22;9099;47.958;11.366;2024-03-17T11:31:35;21.90;99.90
17948;DHT22;9099;47.958;11.366;2024-03-17T11:34:03;21.70;99.90
17948;DHT22;9099;47.958;11.366;2024-03-17T11:36:35;21.50;99.90
17948;DHT22;9099;47.958;11.366;2024-03-17T11:39:03;21.60;99.90
17948;DHT22;9099;47.958;11.366;2024-03-17T11:41:36;21.60;99.90
17948;DHT22;9099;47.958;11.366;2024-03-17T11:44:30;21.30;99.90
17948;DHT22;9099;47.958;11.366;2024-03-17T11:47:00;20.80;99.90
17948;DHT22;9099;47.958;11.366;2024-03-17T11:49:28;20.60;99.90
17948;DHT22;9099;47.958;11.366;2024-03-17T11:51:56;20.20;99.90
17948;DHT22;9099;47.958;11.366;2024-03-17T11:54:23;19.70;99.90
17948;DHT22;9099;47.958;11.366;2024-03-17T11:56:55;19.50;99.90
17948;DHT22;9099;47.958;11.366;2024-03-17T11:59:22;19.80;99.90
17948;DHT22;9099;47.958;11.366;2024-03-17T12:01:50;19.90;99.90
17948;DHT22;9099;47.958;11.366;2024-03-17T12:04:17;20.10;99.90
17948;DHT22;9099;47.958;11.366;2024-03-17T12:06:45;19.90;99.90
17948;DHT22;9099;47.958;11.366;2024-03-17T12:09:17;19.70;99.90
17948;DHT22;9099;47.958;11.366;2024-03-17T12:11:46;19.60;99.90
17948;DHT22;9099;47.958;11.366;2024-03-17T12:14:19;19.50;99.90
17948;DHT22;9099;47.958;11.366;2024-03-17T12:16:47;19.60;99.90
17948;DHT22;9099;47.958;11.366;2024-03-17T12:19:14;19.10;99.90
17948;DHT22;9099;47.958;11.366;2024-03-17T12:21:44;19.10;99.90
17948;DHT22;9099;47.958;11.366;2024-03-17T12:24:14;19.30;99.90
17948;DHT22;9099;47.958;11.366;2024-03-17T12:26:42;19.50;99.90
17948;DHT22;9099;47.958;11.366;2024-03-17T12:29:27;19.50;99.90
17948;DHT22;9099;47.958;11.366;2024-03-17T12:31:56;19.20;99.90
17948;DHT22;9099;47.958;11.366;2024-03-17T12:34:25;18.70;99.90
17948;DHT22;9099;47.958;11.366;2024-03-17T12:36:55;18.20;99.90
17948;DHT22;9099;47.958;11.366;2024-03-17T12:39:23;17.90;99.90
17948;DHT22;9099;47.958;11.366;2024-03-17T12:42:07;17.80;99.90
17948;DHT22;9099;47.958;11.366;2024-03-17T12:44:37;17.70;99.90
17948;DHT22;9099;47.958;11.366;2024-03-17T12:47:08;17.80;99.90
17948;DHT22;9099;47.958;11.366;2024-03-17T12:49:34;18.10;99.90
17948;DHT22;9099;47.958;11.366;2024-03-17T12:52:02;18.30;99.90
17948;DHT22;9099;47.958;11.366;2024-03-17T12:54:29;18.20;99.90
17948;DHT22;9099;47.958;11.366;2024-03-17T12:57:05;18.30;99.90
17948;DHT22;9099;47.958;11.366;2024-03-17T12:59:51;18.30;99.90
17948;DHT22;9099;47.958;11.366;2024-03-17T13:02:41;18.30;99.90
17948;DHT22;9099;47.958;11.366;2024-03-17T13:05:14;18.30;99.90
17948;DHT22;9099;47.958;11.366;2024-03-17T13:07:42;18.30;99.90
17948;DHT22;9099;47.958;11.366;2024-03-17T13:10:12;18.40;99.90
17948;DHT22;9099;47.958;11.366;2024-03-17T13:12:40;18.40;99.90
17948;DHT22;9099;47.958;11.366;2024-03-17T13:15:11;18.10;99.90
17948;DHT22;9099;47.958;11.366;2024-03-17T13:17:39;18.10;99.90
17948;DHT22;9099;47.958;11.366;2024-03-17T13:20:07;18.20;99.90
17948;DHT22;9099;47.958;11.366;2024-03-17T13:22:37;18.30;99.90
17948;DHT22;9099;47.958;11.366;2024-03-17T13:25:08;18.20;99.90
17948;DHT22;9099;47.958;11.366;2024-03-17T13:27:35;18.10;99.90
17948;DHT22;9099;47.958;11.366;2024-03-17T13:30:03;18.10;99.90
17948;DHT22;9099;47.958;11.366;2024-03-17T13:32:33;17.80;99.90
17948;DHT22;9099;47.958;11.366;2024-03-17T13:34:59;17.60;99.90
17948;DHT22;9099;47.958;11.366;2024-03-17T13:37:26;17.50;99.90
17948;DHT22;9099;47.958;11.366;2024-03-17T13:39:53;17.40;99.90
17948;DHT22;9099;47.958;11.366;2024-03-17T13:42:20;17.30;99.90
17948;DHT22;9099;47.958;11.366;2024-03-17T13:44:47;17.20;99.90
17948;DHT22;9099;47.958;11.366;2024-03-17T13:47:14;17.30;99.90
17948;DHT22;9099;47.958;11.366;2024-03-17T13:49:44;17.40;99.90
17948;DHT22;9099;47.958;11.366;2024-03-17T13:52:12;17.30;99.90
17948;DHT22;9099;47.958;11.366;2024-03-17T13:54:39;17.40;99.90
17948;DHT22;9099;47.958;11.366;2024-03-17T13:57:06;17.70;99.90
17948;DHT22;9099;47.958;11.366;2024-03-17T13:59:33;17.70;99.90
17948;DHT22;9099;47.958;11.366;2024-03-17T14:02:00;17.70;99.90
17948;DHT22;9099;47.958;11.366;2024-03-17T14:04:27;17.60;99.90
17948;DHT22;9099;47.958;11.366;2024-03-17T14:06:56;17.50;99.90
17948;DHT22;9099;47.958;11.366;2024-03-17T14:09:23;17.50;99.90
17948;DHT22;9099;47.958;11.366;2024-03-17T14:11:50;17.60;99.90
17948;DHT22;9099;47.958;11.366;2024-03-17T14:14:17;17.50;99.90
17948;DHT22;9099;47.958;11.366;2024-03-17T14:16:43;17.40;99.90
17948;DHT22;9099;47.958;11.366;2024-03-17T14:19:11;17.30;99.90
17948;DHT22;9099;47.958;11.366;2024-03-17T14:21:37;17.30;99.90
17948;DHT22;9099;47.958;11.366;2024-03-17T14:24:06;17.10;99.90
17948;DHT22;9099;47.958;11.366;2024-03-17T14:26:34;16.80;99.90
17948;DHT22;9099;47.958;11.366;2024-03-17T14:29:01;16.70;99.90
17948;DHT22;9099;47.958;11.366;2024-03-17T14:31:30;16.70;99.90
17948;DHT22;9099;47.958;11.366;2024-03-17T14:33:58;16.70;99.90
17948;DHT22;9099;47.958;11.366;2024-03-17T14:36:25;16.70;99.90
17948;DHT22;9099;47.958;11.366;2024-03-17T14:38:53;16.70;99.90
17948;DHT22;9099;47.958;11.366;2024-03-17T14:41:22;16.60;99.90
17948;DHT22;9099;47.958;11.366;2024-03-17T14:43:49;16.60;99.90
17948;DHT22;9099;47.958;11.366;2024-03-17T14:46:16;16.60;99.90
17948;DHT22;9099;47.958;11.366;2024-03-17T14:48:43;16.70;99.90
17948;DHT22;9099;47.958;11.366;2024-03-17T14:51:10;16.40;99.90
17948;DHT22;9099;47.958;11.366;2024-03-17T14:53:37;16.20;99.90
17948;DHT22;9099;47.958;11.366;2024-03-17T14:56:08;16.20;99.90
17948;DHT22;9099;47.958;11.366;2024-03-17T14:58:36;16.00;99.90
17948;DHT22;9099;47.958;11.366;2024-03-17T15:01:03;15.90;99.90
17948;DHT22;9099;47.958;11.366;2024-03-17T15:03:30;15.80;99.90
17948;DHT22;9099;47.958;11.366;2024-03-17T15:05:57;15.80;99.90
17948;DHT22;9099;47.958;11.366;2024-03-17T15:08:24;15.70;99.90
17948;DHT22;9099;47.958;11.366;2024-03-17T15:10:50;15.70;99.90
17948;DHT22;9099;47.958;11.366;2024-03-17T15:13:20;15.70;99.90
17948;DHT22;9099;47.958;11.366;2024-03-17T15:15:48;15.70;99.90
17948;DHT22;9099;47.958;11.366;2024-03-17T15:18:15;15.60;99.90
17948;DHT22;9099;47.958;11.366;2024-03-17T15:20:42;15.50;99.90
17948;DHT22;9099;47.958;11.366;2024-03-17T15:23:09;15.50;99.90
17948;DHT22;9099;47.958;11.366;2024-03-17T15:25:36;15.70;99.90
17948;DHT22;9099;47.958;11.366;2024-03-17T15:28:03;15.80;99.90
17948;DHT22;9099;47.958;11.366;2024-03-17T15:30:30;15.90;99.90
17948;DHT22;9099;47.958;11.366;2024-03-17T15:32:58;15.90;99.90
17948;DHT22;9099;47.958;11.366;2024-03-17T15:35:25;15.90;99.90
17948;DHT22;9099;47.958;11.366;2024-03-17T15:37:55;15.90;99.90
17948;DHT22;9099;47.958;11.366;2024-03-17T15:40:22;15.80;99.90
17948;DHT22;9099;47.958;11.366;2024-03-17T15:42:50;15.70;99.90